Hiwassee, Virginia
Current Conditions -  °F | °C
As of 11:15 PM on Tuesday 21 Oct 2014 (Local Time) from KPSK Reporting Station
Overcast Overcast  
Wind Chill: 45°   Ceiling: 2500
Heat Index: 48°   Visibility: 10mi
Dew Point: 41°   Wind: 7mph
Humidity: 78%   Direction: 300°WNW
Pressure: 30.04"   Gusts: NA
Location:  36.97°N, 80.71°W
Report Text: KPSK 220315Z AUTO 30006KT 10SM OVC025 09/05 A3004 RMK AO2 T00880052
Loading
Personal Weather Stations






























Interactive Weather Map
Tropical Storm Tracking
New forecast layout! Learn more

10-Day Weather Forecast

Advertisements
Track Severe Weather on mobile